KHYA/HYA METAR and TAF weather

Enter ICAO airport designator
Station Type Date Time Source
KHYA METAR 2021/03/08 14:56 UTC NOAA

KHYA 081456Z 33013KT 10SM CLR 01/M06 A3033 RMK AO2 SLP273 T00111056 55000


Station Type Date Time Source
KHYA Decoded METAR 2021/03/08 14:56 UTC NOAA

HYANNIS BARNSTABLE BOARDMN, MA, United States (KHYA) 41-40N 070-16W 22M
Mar 08, 2021 - 09:56 AM EST / 2021.03.08 1456 UTC
Wind: from the NNW (330 degrees) at 15 MPH (13 KT):0
Visibility: 10 mile(s):0
Sky conditions: clear
Temperature: 34.0 F (1.1 C)
Windchill: 24 F (-4 C):1
Dew Point: 21.9 F (-5.6 C)
Relative Humidity: 60%
Pressure (altimeter): 30.33 in. Hg (1027 hPa)
Pressure tendency: 0.00 inches (0.0 hPa) lower than three hours ago
ob: KHYA 081456Z 33013KT 10SM CLR 01/M06 A3033 RMK AO2 SLP273 T00111056 55000
cycle: 15

Station Type Date Time Source
KHYA TAF 2021/03/08 12:42 UTC NOAA

TAF KHYA 081139Z 0812/0912 32006KT P6SM SKC
FM081500 34006KT P6SM SKC
FM082300 24004KT P6SM FEW250

Example: see airport list